Time;durP1;ratioP1;P1;durP2;ratioP2;P2;SDS_P1;SDS_P2;PMS_P1;PMS_P2;Temp;Humidity;BMP_temperature;BMP_pressure;BME280_temperature;BME280_humidity;BME280_pressure;Samples;Min_cycle;Max_cycle;Signal;HPM_P1;HPM_P2
2021/01/14 00:00:17;;;;;;;3.75;0.52;;;;;;;15.18;47.96;100560.00;5029986;28;20111;-66
2021/01/14 00:02:42;;;;;;;6.22;0.63;;;;;;;15.12;48.33;100544.97;5044452;28;20037;-66
2021/01/14 00:05:07;;;;;;;2.92;0.47;;;;;;;15.09;48.57;100560.97;5030692;28;20037;-66
2021/01/14 00:07:33;;;;;;;6.10;0.70;;;;;;;15.07;48.25;100552.13;5044648;28;20045;-66
2021/01/14 00:09:58;;;;;;;2.25;0.63;;;;;;;15.07;48.03;100551.22;5029895;28;20044;-66
2021/01/14 00:12:23;;;;;;;8.43;1.70;;;;;;;15.07;48.07;100552.13;5033035;28;20088;-66
2021/01/14 00:14:49;;;;;;;9.63;2.28;;;;;;;15.11;48.29;100548.53;5049738;28;20043;-66
2021/01/14 00:17:14;;;;;;;4.35;1.00;;;;;;;15.14;48.02;100539.66;5034089;28;20037;-66
2021/01/14 00:19:39;;;;;;;5.28;1.10;;;;;;;15.16;48.06;100541.41;5012694;28;20056;-66
2021/01/14 00:22:05;;;;;;;5.28;0.82;;;;;;;15.15;48.19;100539.66;5029904;28;20034;-66
2021/01/14 00:24:30;;;;;;;5.85;0.70;;;;;;;15.15;48.16;100549.41;5029632;28;20056;-66
2021/01/14 00:26:55;;;;;;;6.57;0.88;;;;;;;15.11;48.31;100542.31;5025238;28;20033;-66
2021/01/14 00:29:21;;;;;;;4.95;0.70;;;;;;;15.09;48.19;100547.69;5037843;28;20045;-66
2021/01/14 00:31:46;;;;;;;3.85;0.55;;;;;;;15.06;48.46;100544.13;5029181;28;20064;-66
2021/01/14 00:34:11;;;;;;;9.63;0.70;;;;;;;15.02;48.43;100539.75;5012251;28;20679;-66
2021/01/14 00:39:20;;;;;;;2.53;0.50;;;;;;;14.87;48.38;100527.41;5031068;28;20451;-65
2021/01/14 00:41:46;;;;;;;5.25;0.70;;;;;;;14.79;48.71;100536.31;5036646;28;20077;-66
2021/01/14 00:44:11;;;;;;;9.95;0.82;;;;;;;14.72;48.54;100528.38;5029821;28;20394;-66
2021/01/14 00:46:36;;;;;;;5.00;1.13;;;;;;;14.67;48.75;100532.84;5029367;28;20038;-66
2021/01/14 00:49:02;;;;;;;2.50;0.70;;;;;;;14.68;49.10;100528.41;5029904;28;20036;-66
2021/01/14 00:51:27;;;;;;;10.85;0.90;;;;;;;14.68;48.67;100528.41;5029229;28;20033;-66
2021/01/14 00:53:53;;;;;;;4.03;0.85;;;;;;;14.68;49.18;100516.03;5040638;28;20091;-66
2021/01/14 00:56:18;;;;;;;2.90;0.90;;;;;;;14.70;48.91;100518.69;5031661;28;20045;-66
2021/01/14 00:58:43;;;;;;;5.30;1.05;;;;;;;14.74;49.11;100523.94;5048592;28;20727;-66
2021/01/14 01:01:08;;;;;;;8.73;1.10;;;;;;;14.79;48.91;100525.69;5030269;28;20045;-66
2021/01/14 01:03:34;;;;;;;5.47;0.80;;;;;;;14.83;49.16;100522.16;5031164;28;20037;-66
2021/01/14 01:05:59;;;;;;;6.82;0.77;;;;;;;14.82;48.79;100518.59;5032251;28;20045;-66
2021/01/14 01:08:24;;;;;;;4.40;0.90;;;;;;;14.80;49.74;100508.84;5034598;28;20047;-66
2021/01/14 01:10:50;;;;;;;3.80;1.42;;;;;;;14.78;49.28;100511.53;5031751;28;20116;-66
2021/01/14 01:13:15;;;;;;;7.40;1.75;;;;;;;14.81;49.42;100505.31;5048442;28;20076;-66
2021/01/14 01:15:40;;;;;;;6.60;1.48;;;;;;;14.83;49.22;100507.09;5048820;28;20052;-66
2021/01/14 01:18:06;;;;;;;6.47;1.20;;;;;;;14.85;49.25;100497.31;5031712;28;20045;-66
2021/01/14 01:20:31;;;;;;;7.70;1.42;;;;;;;14.88;49.54;100499.97;5048859;28;20037;-66
2021/01/14 01:22:56;;;;;;;11.15;1.33;;;;;;;14.92;49.26;100495.50;5048641;28;20037;-66
2021/01/14 01:25:22;;;;;;;5.00;1.33;;;;;;;14.95;49.27;100498.16;5029660;28;20083;-66
2021/01/14 01:27:47;;;;;;;5.45;0.88;;;;;;;14.94;49.30;100489.28;5030041;28;20037;-67
2021/01/14 01:30:13;;;;;;;17.20;5.32;;;;;;;14.94;49.41;100493.72;5015352;28;20091;-66
2021/01/14 01:32:38;;;;;;;3.88;1.08;;;;;;;14.94;49.48;100499.91;5032405;28;20065;-66
2021/01/14 01:35:04;;;;;;;15.73;2.53;;;;;;;14.95;49.87;100484.84;5032683;28;20068;-66
2021/01/14 01:37:29;;;;;;;6.20;1.83;;;;;;;14.95;49.54;100493.72;5014549;28;20117;-66
2021/01/14 01:39:54;;;;;;;10.50;2.25;;;;;;;14.93;49.67;100484.84;5027753;28;20049;-66
2021/01/14 01:42:20;;;;;;;18.60;3.50;;;;;;;14.95;49.99;100476.88;5019258;28;20048;-66
2021/01/14 01:44:45;;;;;;;10.68;2.50;;;;;;;14.95;49.71;100477.75;5051046;28;20041;-67
2021/01/14 01:47:11;;;;;;;6.95;1.83;;;;;;;14.97;50.05;100480.38;5052011;28;20052;-67
2021/01/14 01:49:37;;;;;;;7.07;1.30;;;;;;;14.95;50.02;100475.09;5034143;28;20041;-66
2021/01/14 01:52:02;;;;;;;7.20;1.27;;;;;;;14.96;49.97;100474.22;5032846;28;20037;-66
2021/01/14 01:54:27;;;;;;;6.22;1.80;;;;;;;14.98;49.75;100474.19;5040414;28;20045;-66
2021/01/14 01:56:53;;;;;;;11.32;1.30;;;;;;;14.99;49.52;100471.53;5043237;28;20163;-66
2021/01/14 01:59:21;;;;;;;7.25;1.35;;;;;;;14.99;49.68;100462.66;5016906;28;20166;-66
2021/01/14 02:01:46;;;;;;;7.03;1.52;;;;;;;14.99;49.53;100471.53;5014085;28;20052;-66
2021/01/14 02:04:11;;;;;;;7.32;1.10;;;;;;;15.00;49.62;100470.63;5032035;28;20414;-66
2021/01/14 02:06:37;;;;;;;3.53;1.00;;;;;;;14.99;49.27;100460.00;5038621;28;20043;-66
2021/01/14 02:09:02;;;;;;;3.53;1.50;;;;;;;14.97;49.58;100469.75;5046099;28;20130;-66
2021/01/14 02:11:27;;;;;;;10.68;2.78;;;;;;;14.95;49.35;100471.56;5018674;28;20099;-67
2021/01/14 02:13:53;;;;;;;10.85;1.33;;;;;;;14.94;49.47;100462.72;5015496;28;20040;-66
2021/01/14 02:16:18;;;;;;;6.63;0.80;;;;;;;14.93;49.45;100468.03;5014406;28;20139;-67
2021/01/14 02:18:43;;;;;;;5.70;1.08;;;;;;;14.90;49.43;100465.41;5049809;28;20458;-66
2021/01/14 02:21:09;;;;;;;6.50;1.15;;;;;;;14.87;49.88;100473.38;5026268;28;20038;-66
2021/01/14 02:23:34;;;;;;;2.35;0.60;;;;;;;14.83;49.72;100453.94;5031438;28;20038;-66
2021/01/14 02:25:59;;;;;;;8.27;0.93;;;;;;;14.77;49.87;100452.16;5031606;28;20051;-66
2021/01/14 02:28:25;;;;;;;9.35;1.20;;;;;;;14.72;49.90;100461.94;5050911;28;20037;-66
2021/01/14 02:30:50;;;;;;;5.50;0.85;;;;;;;14.67;50.13;100450.47;5033536;28;20037;-66
2021/01/14 02:33:15;;;;;;;6.88;1.48;;;;;;;14.66;50.05;100450.47;5033500;28;20029;-66
2021/01/14 02:35:41;;;;;;;5.40;1.20;;;;;;;14.67;49.85;100453.13;5033288;28;20059;-66
2021/01/14 02:38:06;;;;;;;12.05;1.50;;;;;;;14.67;49.78;100442.50;5032554;28;20099;-66
2021/01/14 02:40:31;;;;;;;9.15;1.00;;;;;;;14.68;49.91;100446.06;5032166;28;20486;-66
2021/01/14 02:42:57;;;;;;;13.05;4.88;;;;;;;14.71;49.95;100451.31;5013904;28;20401;-66
2021/01/14 02:45:22;;;;;;;8.38;1.25;;;;;;;14.72;49.63;100475.25;5031433;28;20475;-66
2021/01/14 02:47:47;;;;;;;9.65;1.20;;;;;;;14.71;49.50;100476.13;5013406;28;20034;-66
2021/01/14 02:50:13;;;;;;;2.90;0.55;;;;;;;14.72;49.60;100482.31;5031529;28;20037;-66
2021/01/14 02:52:38;;;;;;;8.20;1.13;;;;;;;14.70;49.67;100471.69;5030752;28;20038;-66
2021/01/14 02:55:04;;;;;;;10.45;1.92;;;;;;;14.71;49.50;100478.78;5025131;28;20124;-66
2021/01/14 02:57:29;;;;;;;10.55;1.48;;;;;;;14.72;49.52;100464.63;5050803;28;20493;-66
2021/01/14 02:59:54;;;;;;;13.40;1.40;;;;;;;14.72;49.47;100463.72;5051263;28;20041;-66
2021/01/14 03:02:20;;;;;;;5.45;1.13;;;;;;;14.73;49.85;100462.84;5051033;28;20032;-66
2021/01/14 03:04:45;;;;;;;8.23;1.38;;;;;;;14.74;49.82;100465.50;5048244;28;20219;-66
2021/01/14 03:07:10;;;;;;;7.88;1.40;;;;;;;14.73;49.70;100462.84;5031019;28;20042;-66
2021/01/14 03:09:36;;;;;;;8.82;1.48;;;;;;;14.73;49.69;100462.84;5030011;28;20638;-67
2021/01/14 03:12:01;;;;;;;5.13;1.58;;;;;;;14.77;49.93;100464.56;5022763;28;20569;-66
2021/01/14 03:14:26;;;;;;;10.73;2.08;;;;;;;14.76;49.69;100468.16;5050018;28;20048;-66
2021/01/14 03:16:52;;;;;;;8.93;2.13;;;;;;;14.75;49.72;100463.72;5048861;28;20037;-66
2021/01/14 03:19:17;;;;;;;12.45;2.33;;;;;;;14.74;49.81;100459.28;5033187;28;20049;-66
2021/01/14 03:21:42;;;;;;;11.35;4.78;;;;;;;14.75;49.71;100458.41;5050209;28;20525;-66
2021/01/14 03:24:08;;;;;;;18.73;6.10;;;;;;;14.77;49.90;100453.94;5046109;28;20126;-66
2021/01/14 03:26:33;;;;;;;11.32;2.03;;;;;;;14.79;49.52;100444.19;5050234;28;20045;-66
2021/01/14 03:28:58;;;;;;;8.00;2.10;;;;;;;14.79;49.52;100452.16;5050668;28;20029;-66
2021/01/14 03:31:24;;;;;;;10.40;1.52;;;;;;;14.81;49.65;100445.09;5050129;28;20490;-66
2021/01/14 03:33:49;;;;;;;9.65;1.27;;;;;;;14.82;49.73;100445.97;5031808;28;20052;-66
2021/01/14 03:36:15;;;;;;;8.38;1.30;;;;;;;14.84;49.65;100449.47;5032876;28;20036;-66
2021/01/14 03:38:40;;;;;;;11.00;3.25;;;;;;;14.86;49.53;100450.34;5050028;28;20449;-66
2021/01/14 03:41:05;;;;;;;6.63;1.10;;;;;;;14.87;49.64;100449.47;5049090;28;20038;-66
2021/01/14 03:43:31;;;;;;;6.60;1.15;;;;;;;14.86;49.80;100445.03;5031982;28;20045;-66
2021/01/14 03:45:56;;;;;;;4.90;0.90;;;;;;;14.87;49.59;100447.69;5046117;28;20121;-66
2021/01/14 03:48:21;;;;;;;6.60;1.25;;;;;;;14.95;49.80;100458.28;5035971;28;20103;-66
2021/01/14 03:50:47;;;;;;;8.27;0.90;;;;;;;15.04;49.83;100456.41;5029019;28;20037;-66
2021/01/14 03:53:12;;;;;;;9.70;1.10;;;;;;;15.11;49.62;100463.44;5050144;28;20037;-66
2021/01/14 03:55:38;;;;;;;7.68;1.63;;;;;;;15.11;49.65;100460.78;5036595;28;20052;-66
2021/01/14 03:58:03;;;;;;;9.57;1.30;;;;;;;15.12;49.84;100453.69;5031196;28;20180;-67
2021/01/14 04:00:28;;;;;;;12.70;2.05;;;;;;;15.11;49.80;100451.94;5030588;28;20045;-66
2021/01/14 04:02:54;;;;;;;2.45;0.90;;;;;;;15.08;49.76;100449.31;5029765;28;20104;-66
2021/01/14 04:05:19;;;;;;;12.90;1.10;;;;;;;15.04;49.70;100452.88;5029947;28;20061;-66
2021/01/14 04:07:44;;;;;;;5.82;1.17;;;;;;;15.01;49.80;100445.81;5011929;28;20045;-66
2021/01/14 04:10:10;;;;;;;6.10;1.23;;;;;;;14.97;49.76;100454.69;5031058;28;20202;-66
2021/01/14 04:12:35;;;;;;;6.38;1.65;;;;;;;15.00;49.95;100449.38;5029626;28;20041;-66
2021/01/14 04:15:00;;;;;;;7.95;1.90;;;;;;;14.99;50.18;100444.94;5020956;28;20063;-66
2021/01/14 04:17:26;;;;;;;10.73;1.58;;;;;;;14.96;50.26;100444.97;5042592;28;20045;-67
2021/01/14 04:19:51;;;;;;;10.02;1.63;;;;;;;14.95;49.97;100440.56;5029811;28;20252;-66
2021/01/14 04:22:16;;;;;;;6.82;2.05;;;;;;;14.95;50.39;100437.91;5012219;28;20116;-66
2021/01/14 04:24:42;;;;;;;7.15;1.63;;;;;;;14.96;50.15;100438.78;5029409;28;20044;-66
2021/01/14 04:27:07;;;;;;;12.15;2.70;;;;;;;14.96;50.00;100450.28;5029904;28;20387;-66
2021/01/14 04:29:33;;;;;;;9.63;2.30;;;;;;;14.97;50.39;100452.03;5029529;28;20037;-66
2021/01/14 04:31:58;;;;;;;9.32;1.88;;;;;;;14.96;49.96;100441.44;5041327;28;20409;-66
2021/01/14 04:34:23;;;;;;;11.25;2.53;;;;;;;14.92;50.58;100435.25;5047230;28;20041;-68
2021/01/14 04:36:48;;;;;;;12.85;1.88;;;;;;;14.90;50.47;100436.16;5048054;28;20029;-67
2021/01/14 04:39:14;;;;;;;8.77;2.53;;;;;;;14.88;50.59;100443.25;5049450;28;20057;-67
2021/01/14 04:41:39;;;;;;;6.95;1.45;;;;;;;14.87;50.54;100446.81;5031551;28;20075;-66
2021/01/14 04:44:05;;;;;;;10.55;1.60;;;;;;;14.85;50.42;100436.19;5049729;28;20120;-66
2021/01/14 04:46:30;;;;;;;9.40;1.40;;;;;;;14.83;50.75;100438.00;5047523;28;20445;-67
2021/01/14 04:48:55;;;;;;;11.77;1.30;;;;;;;14.84;50.49;100434.41;5036418;28;20067;-66
2021/01/14 04:51:20;;;;;;;18.15;1.33;;;;;;;14.84;50.61;100439.72;5042470;28;20045;-66
2021/01/14 04:53:46;;;;;;;9.70;1.10;;;;;;;14.85;50.73;100441.50;5029195;28;20059;-66
2021/01/14 04:56:11;;;;;;;9.82;1.63;;;;;;;14.86;50.91;100447.69;5012098;28;20087;-66
2021/01/14 04:58:36;;;;;;;7.13;1.02;;;;;;;14.83;50.93;100445.06;5029215;28;20037;-67
2021/01/14 05:01:02;;;;;;;9.88;1.65;;;;;;;14.82;50.83;100449.50;5012702;28;20076;-67
2021/01/14 05:03:27;;;;;;;6.28;1.40;;;;;;;14.80;51.10;100442.44;5012462;28;20548;-66
2021/01/14 05:05:53;;;;;;;8.63;1.48;;;;;;;14.79;50.62;100441.53;5033325;28;20443;-66
2021/01/14 05:08:18;;;;;;;11.95;1.50;;;;;;;14.78;51.08;100445.09;5016801;28;20030;-66
2021/01/14 05:10:44;;;;;;;7.95;1.83;;;;;;;14.76;50.95;100460.19;5032862;28;20052;-66
2021/01/14 05:13:09;;;;;;;17.35;1.88;;;;;;;14.77;51.30;100452.16;5016210;28;20482;-66
2021/01/14 05:15:35;;;;;;;9.90;1.40;;;;;;;14.81;51.30;100449.50;5031437;28;20045;-67
2021/01/14 05:18:00;;;;;;;20.60;2.00;;;;;;;14.84;51.12;100447.69;5042443;28;20049;-66
2021/01/14 05:20:25;;;;;;;9.05;1.77;;;;;;;14.87;50.85;100453.00;5039668;28;20061;-67
2021/01/14 05:22:51;;;;;;;12.23;2.03;;;;;;;14.86;51.16;100445.91;5033051;28;20086;-66
2021/01/14 05:25:17;;;;;;;13.98;1.65;;;;;;;14.86;50.87;100451.25;5032843;28;20546;-67
2021/01/14 05:27:42;;;;;;;7.82;1.52;;;;;;;14.86;50.83;100453.00;5014899;28;20116;-66
2021/01/14 05:30:07;;;;;;;10.52;1.58;;;;;;;14.88;51.20;100448.56;5032882;28;20418;-66
2021/01/14 05:32:33;;;;;;;13.60;1.50;;;;;;;14.91;50.77;100456.50;5032496;28;20038;-66
2021/01/14 05:34:58;;;;;;;14.45;1.40;;;;;;;14.92;51.33;100456.50;5016788;28;20044;-66
2021/01/14 05:37:23;;;;;;;6.68;1.30;;;;;;;14.96;51.13;100463.59;5015632;28;20038;-66
2021/01/14 05:39:49;;;;;;;5.32;1.30;;;;;;;14.98;51.06;100458.22;5030543;28;20033;-67
2021/01/14 05:42:15;;;;;;;9.77;1.52;;;;;;;15.00;51.17;100470.63;5034657;28;20521;-66
2021/01/14 05:44:44;;;;;;;7.60;1.13;;;;;;;15.01;50.66;100456.44;5034505;28;20111;-66
2021/01/14 05:47:10;;;;;;;9.07;1.77;;;;;;;15.03;50.73;100457.31;5035239;28;20036;-66
2021/01/14 05:49:35;;;;;;;13.20;1.60;;;;;;;15.05;51.01;100452.88;5021468;28;20037;-66
2021/01/14 05:52:00;;;;;;;27.15;2.30;;;;;;;15.10;51.16;100460.78;5048653;28;20051;-66
2021/01/14 05:54:26;;;;;;;6.18;1.30;;;;;;;15.14;50.89;100454.56;5042667;28;20045;-68
2021/01/14 05:56:51;;;;;;;6.95;1.33;;;;;;;15.16;50.83;100452.81;5048701;28;20037;-66
2021/01/14 05:59:16;;;;;;;10.27;1.50;;;;;;;15.18;50.89;100466.06;5027276;28;20378;-66
2021/01/14 06:01:42;;;;;;;14.05;1.48;;;;;;;15.19;50.86;100463.41;5035042;28;20409;-66
2021/01/14 06:04:07;;;;;;;13.77;2.05;;;;;;;15.23;50.87;100456.28;5039910;28;20046;-66
2021/01/14 06:06:32;;;;;;;10.27;1.77;;;;;;;15.31;51.01;100459.75;5030234;28;20044;-66
2021/01/14 06:08:58;;;;;;;6.93;1.17;;;;;;;15.37;51.05;100465.88;5050978;28;20618;-66
2021/01/14 06:11:23;;;;;;;12.88;1.77;;;;;;;15.45;51.01;100474.69;5032187;28;20545;-66
2021/01/14 06:13:48;;;;;;;7.68;2.20;;;;;;;15.50;50.88;100471.97;5013485;28;20409;-66
2021/01/14 06:16:14;;;;;;;8.82;1.88;;;;;;;15.50;50.46;100472.88;5024993;28;20044;-66
2021/01/14 06:18:39;;;;;;;7.30;1.30;;;;;;;15.51;50.44;100473.75;5051337;28;20047;-66
2021/01/14 06:21:05;;;;;;;8.77;1.83;;;;;;;15.53;50.50;100479.97;5037408;28;20038;-66
2021/01/14 06:23:30;;;;;;;5.60;1.40;;;;;;;15.64;50.25;100478.09;5030802;28;20033;-66
2021/01/14 06:25:55;;;;;;;5.60;2.15;;;;;;;15.94;49.92;100484.91;5031845;28;20499;-66
2021/01/14 06:28:21;;;;;;;11.55;2.05;;;;;;;16.24;49.85;100483.66;5014242;28;20059;-66
2021/01/14 06:30:46;;;;;;;11.45;2.35;;;;;;;16.57;48.95;100469.03;5031299;28;20045;-66
2021/01/14 06:33:11;;;;;;;11.90;3.92;;;;;;;17.08;48.69;100470.06;5031564;28;20446;-66
2021/01/14 06:35:37;;;;;;;11.57;3.67;;;;;;;17.68;47.69;100459.31;5016594;28;20042;-67
2021/01/14 06:38:02;;;;;;;17.75;3.03;;;;;;;18.16;47.16;100466.38;5042104;28;20037;-66
2021/01/14 06:40:27;;;;;;;16.38;4.63;;;;;;;18.56;46.44;100485.19;5028378;28;20049;-66
2021/01/14 06:42:55;;;;;;;7.13;1.88;;;;;;;18.71;46.47;100481.25;5031642;28;20111;-66
2021/01/14 06:45:20;;;;;;;10.10;1.30;;;;;;;18.93;46.02;100487.03;5034796;28;20116;-66
2021/01/14 06:47:45;;;;;;;14.63;3.20;;;;;;;19.10;45.69;100480.34;5013393;28;20141;-66
2021/01/14 06:50:11;;;;;;;9.48;2.47;;;;;;;18.88;45.66;100479.09;5031293;28;20069;-66
2021/01/14 06:52:36;;;;;;;7.68;1.27;;;;;;;18.88;46.06;100476.44;5013171;28;20038;-66
2021/01/14 06:55:01;;;;;;;14.18;1.33;;;;;;;18.83;45.55;100473.00;5043010;28;20098;-66
2021/01/14 06:57:27;;;;;;;5.97;1.50;;;;;;;18.79;45.72;100479.31;5032190;28;20094;-66
2021/01/14 06:59:52;;;;;;;13.55;1.80;;;;;;;18.64;45.87;100480.50;5036161;28;20059;-66
2021/01/14 07:02:17;;;;;;;9.63;1.25;;;;;;;18.55;46.33;100474.47;5030727;28;20402;-67
2021/01/14 07:04:43;;;;;;;8.75;1.10;;;;;;;18.44;46.12;100497.91;5012562;28;20394;-67
2021/01/14 07:07:08;;;;;;;6.70;1.30;;;;;;;18.30;46.13;100499.06;5030769;28;20048;-67
2021/01/14 07:09:33;;;;;;;12.48;1.48;;;;;;;18.03;46.15;100496.91;4972994;28;20049;-67
2021/01/14 07:11:59;;;;;;;11.93;1.63;;;;;;;17.75;46.50;100501.00;5031462;28;20045;-68
2021/01/14 07:14:25;;;;;;;6.55;1.75;;;;;;;17.53;46.99;100512.00;5041648;28;20095;-68
2021/01/14 07:16:50;;;;;;;13.75;2.08;;;;;;;17.49;47.05;100509.44;5013295;28;20056;-67
2021/01/14 07:19:15;;;;;;;16.77;1.80;;;;;;;17.75;46.12;100515.22;5027179;28;20049;-67
2021/01/14 07:21:41;;;;;;;13.02;1.83;;;;;;;17.96;46.37;100516.66;5031428;28;20120;-67
2021/01/14 07:24:06;;;;;;;7.20;1.52;;;;;;;17.91;46.21;100515.84;5015833;28;20494;-67
2021/01/14 07:26:31;;;;;;;12.30;1.42;;;;;;;17.82;46.06;100526.69;5034615;28;20051;-68
2021/01/14 07:28:57;;;;;;;11.52;1.40;;;;;;;17.81;45.96;100527.59;5040119;28;20064;-67
2021/01/14 07:31:22;;;;;;;8.38;1.17;;;;;;;17.83;45.95;100531.13;5032399;28;20037;-67
2021/01/14 07:33:48;;;;;;;10.60;2.03;;;;;;;17.89;46.44;100525.66;5029852;28;20544;-67
2021/01/14 07:36:13;;;;;;;11.23;1.55;;;;;;;17.85;46.45;100532.00;5013172;28;20041;-68
2021/01/14 07:38:38;;;;;;;10.30;1.55;;;;;;;17.75;46.13;100530.38;5012603;28;20388;-67
2021/01/14 07:41:04;;;;;;;11.75;1.77;;;;;;;17.87;46.41;100535.50;5014126;28;20044;-72
2021/01/14 07:43:29;;;;;;;11.80;3.63;;;;;;;17.95;45.85;100546.94;5045876;28;20041;-69
2021/01/14 07:45:54;;;;;;;9.13;2.67;;;;;;;18.53;45.17;100533.31;5029374;28;20040;-68
2021/01/14 07:48:20;;;;;;;4.07;1.30;;;;;;;19.06;44.84;100548.25;5050440;28;20029;-68
2021/01/14 07:50:45;;;;;;;5.40;1.60;;;;;;;19.57;44.09;100537.25;5023940;28;20124;-69
2021/01/14 07:53:10;;;;;;;11.93;1.70;;;;;;;19.97;43.28;100545.13;5012970;28;20076;-68
2021/01/14 07:55:37;;;;;;;6.03;1.08;;;;;;;20.28;42.65;100539.84;5032072;28;20040;-71
2021/01/14 07:58:02;;;;;;;7.80;1.50;;;;;;;20.14;42.17;100532.19;5022394;28;20044;-69
2021/01/14 08:00:28;;;;;;;6.38;1.17;;;;;;;20.35;42.14;100527.19;5012379;28;20038;-70
2021/01/14 08:02:54;;;;;;;11.48;1.35;;;;;;;20.53;41.73;100535.59;5021196;28;20037;-72
2021/01/14 08:05:19;;;;;;;14.77;1.60;;;;;;;20.78;41.37;100540.22;5026817;28;20052;-70
2021/01/14 08:07:44;;;;;;;9.32;1.35;;;;;;;20.90;41.59;100535.34;5038988;28;20046;-69
2021/01/14 08:10:10;;;;;;;14.45;1.48;;;;;;;20.92;41.69;100546.06;5019521;28;20044;-68
2021/01/14 08:12:35;;;;;;;10.65;1.25;;;;;;;20.96;41.38;100523.56;5035516;28;20064;-68
2021/01/14 08:15:01;;;;;;;13.82;1.60;;;;;;;20.98;41.11;100543.19;5031932;28;20033;-68
2021/01/14 08:17:29;;;;;;;7.28;1.40;;;;;;;20.93;41.53;100535.28;5014783;28;20052;-69
2021/01/14 08:19:54;;;;;;;29.92;1.65;;;;;;;21.07;41.18;100533.03;5043959;28;20113;-68
2021/01/14 08:22:20;;;;;;;18.98;1.92;;;;;;;21.22;40.97;100520.97;5039767;28;20122;-68
2021/01/14 08:24:45;;;;;;;11.93;1.67;;;;;;;21.44;40.41;100513.97;5012120;28;20111;-68
2021/01/14 08:27:11;;;;;;;9.57;1.70;;;;;;;21.66;39.97;100527.56;5031128;28;20529;-68
2021/01/14 08:29:36;;;;;;;8.20;1.60;;;;;;;21.66;40.22;100532.94;5012680;28;20045;-68
2021/01/14 08:32:02;;;;;;;6.68;1.45;;;;;;;21.56;40.40;100528.81;5029507;28;20490;-68
2021/01/14 08:34:27;;;;;;;5.95;1.27;;;;;;;21.36;40.68;100521.41;5011371;28;20061;-69
2021/01/14 08:36:52;;;;;;;8.05;1.65;;;;;;;21.07;40.52;100519.59;5017089;28;20052;-68
2021/01/14 08:39:18;;;;;;;11.32;1.83;;;;;;;20.99;40.40;100528.84;5016326;28;20441;-68
2021/01/14 08:41:43;;;;;;;17.75;2.40;;;;;;;20.94;40.58;100538.81;5033491;28;20042;-68
2021/01/14 08:44:08;;;;;;;12.65;2.33;;;;;;;21.01;40.72;100529.66;5033693;28;20045;-68
2021/01/14 08:46:34;;;;;;;14.63;1.42;;;;;;;21.07;40.01;100524.97;5023873;28;20075;-71
2021/01/14 08:48:59;;;;;;;7.13;1.65;;;;;;;21.23;40.27;100517.34;5034005;28;20064;-69
2021/01/14 08:51:24;;;;;;;11.95;3.78;;;;;;;21.09;40.34;100531.19;5019863;28;20034;-68
2021/01/14 08:53:50;;;;;;;18.02;3.03;;;;;;;20.85;40.71;100533.75;5052599;28;20033;-69
2021/01/14 08:56:15;;;;;;;22.73;4.75;;;;;;;20.21;41.40;100540.94;5045547;28;20043;-68
2021/01/14 08:58:42;;;;;;;25.40;4.88;;;;;;;19.81;41.84;100533.06;5042951;28;20060;-72
2021/01/14 09:04:26;;;;;;;17.98;3.95;;;;;;;19.70;41.94;100552.09;5059190;27;20430;-68
2021/01/14 09:06:52;;;;;;;18.63;4.13;;;;;;;19.78;41.83;100543.84;5064186;28;20101;-70
2021/01/14 09:09:17;;;;;;;23.27;4.57;;;;;;;19.59;41.94;100547.91;5065178;28;20700;-70
2021/01/14 09:11:42;;;;;;;13.52;3.55;;;;;;;19.52;42.16;100560.59;5066818;28;20052;-70
2021/01/14 09:14:08;;;;;;;12.10;1.85;;;;;;;19.59;42.16;100545.25;5065916;28;20370;-70
2021/01/14 09:16:33;;;;;;;8.77;1.60;;;;;;;19.68;42.01;100545.03;5065399;28;20501;-70
2021/01/14 09:18:59;;;;;;;5.35;1.00;;;;;;;19.83;41.82;100541.94;5062879;28;20043;-70
2021/01/14 09:21:24;;;;;;;8.00;1.42;;;;;;;19.78;41.81;100533.16;5066022;28;20048;-70
2021/01/14 09:23:49;;;;;;;9.07;1.30;;;;;;;19.83;41.33;100528.53;5066517;28;20124;-71
2021/01/14 09:26:15;;;;;;;10.63;2.00;;;;;;;19.93;41.21;100532.75;5066518;28;20051;-69
2021/01/14 09:28:40;;;;;;;10.32;1.02;;;;;;;20.02;40.86;100521.78;5065003;28;20037;-67
2021/01/14 09:31:06;;;;;;;8.38;1.75;;;;;;;20.20;40.84;100536.50;5052277;28;20040;-64
2021/01/14 09:33:31;;;;;;;9.05;1.30;;;;;;;20.47;40.62;100526.84;5043985;28;20037;-68
2021/01/14 09:35:57;;;;;;;7.22;1.15;;;;;;;20.54;40.30;100521.25;5047108;28;20522;-68
2021/01/14 09:38:22;;;;;;;11.15;1.15;;;;;;;20.47;40.07;100508.94;5046178;28;20071;-64
2021/01/14 09:40:47;;;;;;;6.55;1.50;;;;;;;20.43;40.01;100509.06;5044978;28;20049;-69
2021/01/14 09:43:13;;;;;;;9.88;1.80;;;;;;;20.36;40.09;100518.19;5045278;28;20409;-67
2021/01/14 09:45:38;;;;;;;12.45;1.30;;;;;;;20.34;40.33;100510.22;5045998;28;20053;-68
2021/01/14 09:48:03;;;;;;;8.95;1.48;;;;;;;20.38;40.02;100516.34;5044172;28;20079;-63
2021/01/14 09:50:29;;;;;;;10.43;1.33;;;;;;;20.28;40.48;100505.00;5044962;28;20563;-67
2021/01/14 09:52:54;;;;;;;19.08;1.85;;;;;;;20.31;40.18;100520.97;5064365;28;20401;-69
2021/01/14 09:55:19;;;;;;;7.72;1.40;;;;;;;20.76;39.48;100534.00;5064392;28;20063;-64
2021/01/14 09:57:45;;;;;;;8.80;1.70;;;;;;;21.08;39.08;100529.41;5065014;28;20056;-64
2021/01/14 10:00:11;;;;;;;14.10;1.80;;;;;;;21.23;39.33;100519.16;5051835;28;20046;-68
2021/01/14 10:02:37;;;;;;;15.60;1.75;;;;;;;21.24;39.40;100524.50;5045844;28;20107;-64
2021/01/14 10:05:02;;;;;;;11.73;2.42;;;;;;;21.34;39.45;100528.63;5046218;28;20498;-65
2021/01/14 10:07:27;;;;;;;9.20;2.20;;;;;;;21.33;39.32;100509.91;5044672;28;20136;-70
2021/01/14 10:09:53;;;;;;;12.75;1.55;;;;;;;21.14;39.41;100495.25;5045720;28;20398;-68
2021/01/14 10:12:18;;;;;;;11.75;1.20;;;;;;;20.87;39.86;100507.75;5045516;28;20041;-64
2021/01/14 10:14:43;;;;;;;13.07;3.22;;;;;;;20.61;39.96;100504.03;5050240;28;20390;-68
2021/01/14 10:17:09;;;;;;;15.15;3.22;;;;;;;20.62;39.89;100496.84;5046184;28;20061;-69
2021/01/14 10:19:34;;;;;;;9.82;2.88;;;;;;;20.73;40.14;100504.59;5048379;28;20125;-70
2021/01/14 10:21:59;;;;;;;11.13;1.98;;;;;;;20.74;39.93;100512.63;5052899;28;20040;-66
2021/01/14 10:24:27;;;;;;;17.52;1.50;;;;;;;20.58;40.06;100508.63;5050538;28;20041;-69
2021/01/14 10:26:52;;;;;;;12.60;1.88;;;;;;;20.45;40.32;100505.41;5012602;28;20037;-68
2021/01/14 10:29:18;;;;;;;18.52;3.13;;;;;;;20.36;40.21;100508.34;5011759;28;20515;-64
2021/01/14 10:31:44;;;;;;;12.00;2.03;;;;;;;20.26;40.74;100507.72;5009398;28;20049;-68
2021/01/14 10:34:10;;;;;;;12.00;1.63;;;;;;;20.28;40.89;100518.41;5002161;28;20545;-65
2021/01/14 10:36:35;;;;;;;8.70;2.03;;;;;;;20.36;40.84;100500.31;5025062;28;20037;-66
2021/01/14 10:39:00;;;;;;;6.43;2.25;;;;;;;20.40;40.77;100504.69;5032199;28;20042;-64
2021/01/14 10:41:26;;;;;;;11.68;1.92;;;;;;;20.13;41.04;100497.38;5032276;28;20076;-64
2021/01/14 10:43:51;;;;;;;13.75;3.00;;;;;;;20.01;40.83;100511.13;5031646;28;20051;-65
2021/01/14 10:46:17;;;;;;;9.85;1.73;;;;;;;20.14;40.58;100521.47;5008087;28;20197;-71
2021/01/14 10:48:42;;;;;;;28.98;4.25;;;;;;;19.96;40.63;100515.69;5021893;28;20044;-67
2021/01/14 10:51:07;;;;;;;15.82;2.03;;;;;;;19.70;41.13;100519.94;5032592;28;20045;-71
2021/01/14 10:53:33;;;;;;;18.48;3.35;;;;;;;19.44;41.45;100539.31;5025783;28;20220;-76
2021/01/14 10:55:58;;;;;;;20.55;4.88;;;;;;;19.16;42.47;100530.19;5012530;28;20512;-66
2021/01/14 10:58:24;;;;;;;16.33;4.43;;;;;;;18.89;42.23;100542.41;5012514;28;20042;-66
2021/01/14 11:00:49;;;;;;;14.48;2.60;;;;;;;18.71;42.71;100537.41;5012303;28;20439;-66
2021/01/14 11:03:14;;;;;;;12.63;1.65;;;;;;;18.74;42.93;100534.69;5038057;28;20049;-67
2021/01/14 11:05:40;;;;;;;5.80;1.10;;;;;;;18.89;42.41;100528.13;5021055;28;20034;-66
2021/01/14 11:08:05;;;;;;;16.67;1.58;;;;;;;19.05;42.32;100530.41;5013131;28;20065;-67
2021/01/14 11:10:30;;;;;;;10.00;1.83;;;;;;;19.20;41.76;100529.19;5022800;28;20052;-66
2021/01/14 11:12:56;;;;;;;7.78;1.52;;;;;;;19.46;42.08;100540.19;5015011;28;20042;-67
2021/01/14 11:15:21;;;;;;;6.85;1.33;;;;;;;19.70;41.63;100536.00;5013639;28;20046;-69
2021/01/14 11:17:47;;;;;;;10.00;1.17;;;;;;;19.84;41.45;100549.94;5013511;28;20402;-68